sensor_id;sensor_type;location;lat;lon;timestamp;P1;durP1;ratioP1;P2;durP2;ratioP2
14272;SDS011;7220;49.450;11.052;2023-06-22T00:02:04;9.53;;;8.50;;
14272;SDS011;7220;49.450;11.052;2023-06-22T00:06:04;9.10;;;8.20;;
14272;SDS011;7220;49.450;11.052;2023-06-22T00:10:05;9.10;;;8.20;;
14272;SDS011;7220;49.450;11.052;2023-06-22T00:14:06;9.98;;;8.98;;
14272;SDS011;7220;49.450;11.052;2023-06-22T00:18:06;9.05;;;8.15;;
14272;SDS011;7220;49.450;11.052;2023-06-22T00:22:07;9.07;;;8.07;;
14272;SDS011;7220;49.450;11.052;2023-06-22T00:26:07;8.70;;;7.80;;
14272;SDS011;7220;49.450;11.052;2023-06-22T00:30:08;8.88;;;7.97;;
14272;SDS011;7220;49.450;11.052;2023-06-22T00:34:08;8.40;;;7.53;;
14272;SDS011;7220;49.450;11.052;2023-06-22T00:38:09;11.93;;;8.10;;
14272;SDS011;7220;49.450;11.052;2023-06-22T00:42:09;8.45;;;7.55;;
14272;SDS011;7220;49.450;11.052;2023-06-22T00:46:10;9.07;;;8.25;;
14272;SDS011;7220;49.450;11.052;2023-06-22T00:50:12;8.02;;;7.22;;
14272;SDS011;7220;49.450;11.052;2023-06-22T00:54:18;8.65;;;7.60;;
14272;SDS011;7220;49.450;11.052;2023-06-22T00:58:24;7.90;;;7.13;;
14272;SDS011;7220;49.450;11.052;2023-06-22T01:02:25;8.20;;;7.40;;
14272;SDS011;7220;49.450;11.052;2023-06-22T01:06:28;8.48;;;7.68;;
14272;SDS011;7220;49.450;11.052;2023-06-22T01:15:00;10.20;;;8.00;;
14272;SDS011;7220;49.450;11.052;2023-06-22T01:19:13;8.93;;;8.02;;
14272;SDS011;7220;49.450;11.052;2023-06-22T01:23:51;8.27;;;7.57;;
14272;SDS011;7220;49.450;11.052;2023-06-22T01:28:09;7.97;;;7.18;;
14272;SDS011;7220;49.450;11.052;2023-06-22T01:32:35;8.38;;;7.47;;
14272;SDS011;7220;49.450;11.052;2023-06-22T01:36:37;8.50;;;7.20;;
14272;SDS011;7220;49.450;11.052;2023-06-22T01:40:39;7.65;;;6.95;;
14272;SDS011;7220;49.450;11.052;2023-06-22T01:44:39;7.95;;;7.25;;
14272;SDS011;7220;49.450;11.052;2023-06-22T01:48:40;7.55;;;6.80;;
14272;SDS011;7220;49.450;11.052;2023-06-22T01:52:41;8.57;;;7.68;;
14272;SDS011;7220;49.450;11.052;2023-06-22T01:56:41;8.47;;;7.60;;
14272;SDS011;7220;49.450;11.052;2023-06-22T02:00:47;8.13;;;6.90;;
14272;SDS011;7220;49.450;11.052;2023-06-22T02:05:17;7.95;;;7.25;;
14272;SDS011;7220;49.450;11.052;2023-06-22T02:09:17;9.38;;;7.78;;
14272;SDS011;7220;49.450;11.052;2023-06-22T02:13:21;8.77;;;7.63;;
14272;SDS011;7220;49.450;11.052;2023-06-22T02:17:24;9.75;;;7.18;;
14272;SDS011;7220;49.450;11.052;2023-06-22T02:21:26;8.73;;;7.93;;
14272;SDS011;7220;49.450;11.052;2023-06-22T02:25:26;8.00;;;7.00;;
14272;SDS011;7220;49.450;11.052;2023-06-22T02:29:27;8.40;;;7.60;;
14272;SDS011;7220;49.450;11.052;2023-06-22T02:33:27;8.48;;;7.63;;
14272;SDS011;7220;49.450;11.052;2023-06-22T02:37:28;8.75;;;7.85;;
14272;SDS011;7220;49.450;11.052;2023-06-22T02:41:29;11.00;;;8.20;;
14272;SDS011;7220;49.450;11.052;2023-06-22T02:45:29;8.30;;;7.50;;
14272;SDS011;7220;49.450;11.052;2023-06-22T02:49:30;8.52;;;7.68;;
14272;SDS011;7220;49.450;11.052;2023-06-22T02:53:30;9.30;;;7.80;;
14272;SDS011;7220;49.450;11.052;2023-06-22T02:57:30;8.60;;;7.70;;
14272;SDS011;7220;49.450;11.052;2023-06-22T03:01:31;9.35;;;8.35;;
14272;SDS011;7220;49.450;11.052;2023-06-22T03:05:37;9.30;;;8.40;;
14272;SDS011;7220;49.450;11.052;2023-06-22T03:09:40;10.10;;;9.10;;
14272;SDS011;7220;49.450;11.052;2023-06-22T03:13:42;10.32;;;9.27;;
14272;SDS011;7220;49.450;11.052;2023-06-22T03:17:42;10.23;;;9.20;;
14272;SDS011;7220;49.450;11.052;2023-06-22T03:21:42;10.75;;;9.65;;
14272;SDS011;7220;49.450;11.052;2023-06-22T03:25:43;10.60;;;9.53;;
14272;SDS011;7220;49.450;11.052;2023-06-22T03:29:45;10.80;;;9.55;;
14272;SDS011;7220;49.450;11.052;2023-06-22T03:33:46;10.80;;;9.77;;
14272;SDS011;7220;49.450;11.052;2023-06-22T03:37:46;10.93;;;9.80;;
14272;SDS011;7220;49.450;11.052;2023-06-22T03:41:46;11.43;;;10.43;;
14272;SDS011;7220;49.450;11.052;2023-06-22T03:45:47;10.98;;;9.90;;
14272;SDS011;7220;49.450;11.052;2023-06-22T03:49:47;11.40;;;10.40;;
14272;SDS011;7220;49.450;11.052;2023-06-22T03:53:47;11.13;;;9.85;;
14272;SDS011;7220;49.450;11.052;2023-06-22T03:57:48;11.57;;;10.10;;
14272;SDS011;7220;49.450;11.052;2023-06-22T04:01:48;10.32;;;9.32;;
14272;SDS011;7220;49.450;11.052;2023-06-22T04:05:48;9.67;;;8.73;;
14272;SDS011;7220;49.450;11.052;2023-06-22T04:09:49;11.60;;;9.50;;
14272;SDS011;7220;49.450;11.052;2023-06-22T04:13:49;10.25;;;8.82;;
14272;SDS011;7220;49.450;11.052;2023-06-22T04:17:51;9.07;;;8.27;;
14272;SDS011;7220;49.450;11.052;2023-06-22T04:21:51;8.80;;;7.97;;
14272;SDS011;7220;49.450;11.052;2023-06-22T04:25:52;9.77;;;8.77;;
14272;SDS011;7220;49.450;11.052;2023-06-22T04:29:52;8.65;;;7.85;;
14272;SDS011;7220;49.450;11.052;2023-06-22T04:33:52;9.17;;;8.37;;
14272;SDS011;7220;49.450;11.052;2023-06-22T04:37:53;9.43;;;8.52;;
14272;SDS011;7220;49.450;11.052;2023-06-22T04:41:55;9.23;;;8.32;;
14272;SDS011;7220;49.450;11.052;2023-06-22T04:46:00;11.38;;;8.27;;
14272;SDS011;7220;49.450;11.052;2023-06-22T04:50:03;9.00;;;7.93;;
14272;SDS011;7220;49.450;11.052;2023-06-22T04:54:06;9.25;;;8.35;;
14272;SDS011;7220;49.450;11.052;2023-06-22T04:58:06;9.38;;;8.55;;
14272;SDS011;7220;49.450;11.052;2023-06-22T05:02:07;9.40;;;8.38;;
14272;SDS011;7220;49.450;11.052;2023-06-22T05:06:08;8.82;;;8.02;;
14272;SDS011;7220;49.450;11.052;2023-06-22T05:10:09;9.50;;;8.55;;
14272;SDS011;7220;49.450;11.052;2023-06-22T05:14:12;9.90;;;8.90;;
14272;SDS011;7220;49.450;11.052;2023-06-22T05:18:12;11.10;;;9.13;;
14272;SDS011;7220;49.450;11.052;2023-06-22T05:22:13;9.80;;;8.90;;
14272;SDS011;7220;49.450;11.052;2023-06-22T05:26:15;9.43;;;8.57;;
14272;SDS011;7220;49.450;11.052;2023-06-22T05:30:15;9.18;;;8.32;;
14272;SDS011;7220;49.450;11.052;2023-06-22T05:34:16;9.70;;;8.48;;
14272;SDS011;7220;49.450;11.052;2023-06-22T05:38:16;10.88;;;9.70;;
14272;SDS011;7220;49.450;11.052;2023-06-22T05:42:16;9.63;;;8.70;;
14272;SDS011;7220;49.450;11.052;2023-06-22T05:46:17;10.90;;;9.70;;
14272;SDS011;7220;49.450;11.052;2023-06-22T05:50:18;10.30;;;9.40;;
14272;SDS011;7220;49.450;11.052;2023-06-22T05:54:19;10.33;;;8.70;;
14272;SDS011;7220;49.450;11.052;2023-06-22T05:58:19;14.37;;;9.30;;
14272;SDS011;7220;49.450;11.052;2023-06-22T06:02:19;10.68;;;9.02;;
14272;SDS011;7220;49.450;11.052;2023-06-22T06:06:20;10.45;;;8.60;;
14272;SDS011;7220;49.450;11.052;2023-06-22T06:10:21;11.80;;;9.13;;
14272;SDS011;7220;49.450;11.052;2023-06-22T06:14:21;10.73;;;9.00;;
14272;SDS011;7220;49.450;11.052;2023-06-22T06:18:21;12.73;;;10.20;;
14272;SDS011;7220;49.450;11.052;2023-06-22T06:22:22;15.80;;;14.20;;
14272;SDS011;7220;49.450;11.052;2023-06-22T06:26:23;12.85;;;9.50;;
14272;SDS011;7220;49.450;11.052;2023-06-22T06:30:27;10.18;;;8.40;;
14272;SDS011;7220;49.450;11.052;2023-06-22T06:34:28;12.03;;;9.47;;
14272;SDS011;7220;49.450;11.052;2023-06-22T06:38:29;10.57;;;8.43;;
14272;SDS011;7220;49.450;11.052;2023-06-22T06:42:30;10.88;;;9.07;;
14272;SDS011;7220;49.450;11.052;2023-06-22T06:46:31;9.18;;;8.27;;
14272;SDS011;7220;49.450;11.052;2023-06-22T06:50:31;9.60;;;8.63;;
14272;SDS011;7220;49.450;11.052;2023-06-22T06:54:32;11.20;;;8.37;;
14272;SDS011;7220;49.450;11.052;2023-06-22T06:58:32;10.17;;;8.33;;
14272;SDS011;7220;49.450;11.052;2023-06-22T07:02:32;9.88;;;8.90;;
14272;SDS011;7220;49.450;11.052;2023-06-22T07:06:33;9.57;;;8.27;;
14272;SDS011;7220;49.450;11.052;2023-06-22T07:10:33;9.30;;;8.25;;
14272;SDS011;7220;49.450;11.052;2023-06-22T07:14:34;10.38;;;8.77;;
14272;SDS011;7220;49.450;11.052;2023-06-22T07:18:34;9.03;;;7.50;;
14272;SDS011;7220;49.450;11.052;2023-06-22T07:22:35;12.27;;;8.23;;
14272;SDS011;7220;49.450;11.052;2023-06-22T07:26:35;19.20;;;9.23;;
14272;SDS011;7220;49.450;11.052;2023-06-22T07:30:36;10.97;;;8.43;;
14272;SDS011;7220;49.450;11.052;2023-06-22T07:34:36;11.57;;;8.10;;
14272;SDS011;7220;49.450;11.052;2023-06-22T07:38:36;8.13;;;7.32;;
14272;SDS011;7220;49.450;11.052;2023-06-22T07:42:37;10.90;;;6.67;;
14272;SDS011;7220;49.450;11.052;2023-06-22T07:46:37;9.02;;;7.10;;
14272;SDS011;7220;49.450;11.052;2023-06-22T07:50:37;7.60;;;6.27;;
14272;SDS011;7220;49.450;11.052;2023-06-22T07:54:38;10.30;;;8.07;;
14272;SDS011;7220;49.450;11.052;2023-06-22T07:58:38;7.85;;;6.55;;
14272;SDS011;7220;49.450;11.052;2023-06-22T08:02:39;12.50;;;6.70;;
14272;SDS011;7220;49.450;11.052;2023-06-22T08:06:40;11.10;;;6.35;;
14272;SDS011;7220;49.450;11.052;2023-06-22T08:10:41;23.45;;;7.75;;
14272;SDS011;7220;49.450;11.052;2023-06-22T08:14:42;15.23;;;7.88;;
14272;SDS011;7220;49.450;11.052;2023-06-22T08:18:46;8.20;;;7.15;;
14272;SDS011;7220;49.450;11.052;2023-06-22T08:22:46;7.82;;;5.38;;
14272;SDS011;7220;49.450;11.052;2023-06-22T08:26:47;7.50;;;5.97;;
14272;SDS011;7220;49.450;11.052;2023-06-22T08:30:47;7.20;;;6.20;;
14272;SDS011;7220;49.450;11.052;2023-06-22T08:34:47;8.13;;;5.90;;
14272;SDS011;7220;49.450;11.052;2023-06-22T08:38:48;8.93;;;5.90;;
14272;SDS011;7220;49.450;11.052;2023-06-22T08:42:51;10.82;;;6.10;;
14272;SDS011;7220;49.450;11.052;2023-06-22T08:46:51;6.20;;;5.47;;
14272;SDS011;7220;49.450;11.052;2023-06-22T08:50:51;6.90;;;5.73;;
14272;SDS011;7220;49.450;11.052;2023-06-22T08:54:52;6.73;;;5.50;;
14272;SDS011;7220;49.450;11.052;2023-06-22T08:58:52;7.45;;;5.90;;
14272;SDS011;7220;49.450;11.052;2023-06-22T09:02:52;9.10;;;5.40;;
14272;SDS011;7220;49.450;11.052;2023-06-22T09:06:53;10.27;;;6.53;;
14272;SDS011;7220;49.450;11.052;2023-06-22T09:10:53;8.10;;;5.80;;
14272;SDS011;7220;49.450;11.052;2023-06-22T09:14:53;8.53;;;5.67;;
14272;SDS011;7220;49.450;11.052;2023-06-22T09:18:54;11.25;;;5.40;;
14272;SDS011;7220;49.450;11.052;2023-06-22T13:19:03;8.82;;;6.60;;
14272;SDS011;7220;49.450;11.052;2023-06-22T13:23:04;9.50;;;6.03;;
14272;SDS011;7220;49.450;11.052;2023-06-22T13:27:04;9.23;;;6.33;;
14272;SDS011;7220;49.450;11.052;2023-06-22T13:31:05;7.88;;;6.65;;
14272;SDS011;7220;49.450;11.052;2023-06-22T13:35:05;10.75;;;5.82;;
14272;SDS011;7220;49.450;11.052;2023-06-22T13:39:06;8.32;;;6.45;;
14272;SDS011;7220;49.450;11.052;2023-06-22T13:43:06;8.05;;;6.43;;
14272;SDS011;7220;49.450;11.052;2023-06-22T13:47:07;11.30;;;6.20;;
14272;SDS011;7220;49.450;11.052;2023-06-22T13:51:07;9.60;;;6.65;;
14272;SDS011;7220;49.450;11.052;2023-06-22T13:55:08;12.02;;;6.45;;
14272;SDS011;7220;49.450;11.052;2023-06-22T13:59:09;12.13;;;6.05;;
14272;SDS011;7220;49.450;11.052;2023-06-22T14:03:10;9.88;;;6.22;;
14272;SDS011;7220;49.450;11.052;2023-06-22T14:07:10;9.27;;;5.70;;
14272;SDS011;7220;49.450;11.052;2023-06-22T14:11:11;9.60;;;6.40;;
14272;SDS011;7220;49.450;11.052;2023-06-22T14:15:11;10.07;;;6.07;;
14272;SDS011;7220;49.450;11.052;2023-06-22T14:19:11;9.93;;;6.10;;
14272;SDS011;7220;49.450;11.052;2023-06-22T14:23:12;13.87;;;6.60;;
14272;SDS011;7220;49.450;11.052;2023-06-22T14:27:12;7.20;;;5.53;;
14272;SDS011;7220;49.450;11.052;2023-06-22T14:31:14;9.20;;;5.78;;
14272;SDS011;7220;49.450;11.052;2023-06-22T14:35:14;11.75;;;7.25;;
14272;SDS011;7220;49.450;11.052;2023-06-22T14:39:15;7.33;;;5.83;;
14272;SDS011;7220;49.450;11.052;2023-06-22T14:43:15;9.33;;;7.00;;
14272;SDS011;7220;49.450;11.052;2023-06-22T14:47:15;11.10;;;6.77;;
14272;SDS011;7220;49.450;11.052;2023-06-22T14:51:18;6.55;;;5.85;;
14272;SDS011;7220;49.450;11.052;2023-06-22T14:55:18;9.25;;;6.85;;
14272;SDS011;7220;49.450;11.052;2023-06-22T14:59:19;7.60;;;6.47;;
14272;SDS011;7220;49.450;11.052;2023-06-22T15:03:19;10.43;;;7.18;;
14272;SDS011;7220;49.450;11.052;2023-06-22T15:07:25;7.75;;;6.47;;
14272;SDS011;7220;49.450;11.052;2023-06-22T15:11:25;11.67;;;5.50;;
14272;SDS011;7220;49.450;11.052;2023-06-22T15:15:26;8.40;;;5.80;;
14272;SDS011;7220;49.450;11.052;2023-06-22T15:19:26;10.37;;;6.37;;
14272;SDS011;7220;49.450;11.052;2023-06-22T15:23:26;11.77;;;8.40;;
14272;SDS011;7220;49.450;11.052;2023-06-22T15:27:28;11.55;;;6.43;;
14272;SDS011;7220;49.450;11.052;2023-06-22T15:31:29;12.90;;;6.90;;
14272;SDS011;7220;49.450;11.052;2023-06-22T15:35:29;10.40;;;6.10;;
14272;SDS011;7220;49.450;11.052;2023-06-22T15:39:30;13.13;;;6.78;;
14272;SDS011;7220;49.450;11.052;2023-06-22T15:43:30;10.10;;;6.73;;
14272;SDS011;7220;49.450;11.052;2023-06-22T15:47:30;10.90;;;6.90;;
14272;SDS011;7220;49.450;11.052;2023-06-22T15:51:30;8.43;;;6.20;;
14272;SDS011;7220;49.450;11.052;2023-06-22T15:55:31;7.65;;;5.43;;
14272;SDS011;7220;49.450;11.052;2023-06-22T15:59:31;8.00;;;5.87;;
14272;SDS011;7220;49.450;11.052;2023-06-22T16:03:31;11.15;;;6.78;;
14272;SDS011;7220;49.450;11.052;2023-06-22T16:07:32;12.67;;;6.87;;
14272;SDS011;7220;49.450;11.052;2023-06-22T16:11:32;9.05;;;5.70;;
14272;SDS011;7220;49.450;11.052;2023-06-22T16:15:33;8.97;;;5.60;;
14272;SDS011;7220;49.450;11.052;2023-06-22T16:19:33;13.63;;;6.33;;
14272;SDS011;7220;49.450;11.052;2023-06-22T16:23:33;9.60;;;6.07;;
14272;SDS011;7220;49.450;11.052;2023-06-22T16:27:33;9.87;;;6.27;;
14272;SDS011;7220;49.450;11.052;2023-06-22T16:31:34;13.18;;;8.95;;
14272;SDS011;7220;49.450;11.052;2023-06-22T16:35:35;15.13;;;10.30;;
14272;SDS011;7220;49.450;11.052;2023-06-22T16:39:40;14.07;;;7.32;;
14272;SDS011;7220;49.450;11.052;2023-06-22T16:43:41;9.37;;;6.10;;
14272;SDS011;7220;49.450;11.052;2023-06-22T16:47:41;11.77;;;6.93;;
14272;SDS011;7220;49.450;11.052;2023-06-22T16:51:42;10.02;;;6.03;;
14272;SDS011;7220;49.450;11.052;2023-06-22T16:55:42;8.63;;;5.50;;
14272;SDS011;7220;49.450;11.052;2023-06-22T16:59:43;14.70;;;6.20;;
14272;SDS011;7220;49.450;11.052;2023-06-22T17:03:44;9.27;;;5.00;;
14272;SDS011;7220;49.450;11.052;2023-06-22T17:07:55;9.90;;;5.28;;
14272;SDS011;7220;49.450;11.052;2023-06-22T17:11:59;10.13;;;5.10;;
14272;SDS011;7220;49.450;11.052;2023-06-22T17:16:00;10.30;;;5.30;;
14272;SDS011;7220;49.450;11.052;2023-06-22T17:20:03;7.85;;;5.28;;
14272;SDS011;7220;49.450;11.052;2023-06-22T17:24:03;10.85;;;5.35;;
14272;SDS011;7220;49.450;11.052;2023-06-22T17:28:04;14.13;;;6.20;;
14272;SDS011;7220;49.450;11.052;2023-06-22T17:32:04;8.73;;;5.55;;
14272;SDS011;7220;49.450;11.052;2023-06-22T17:36:09;13.27;;;6.05;;
14272;SDS011;7220;49.450;11.052;2023-06-22T17:40:13;10.48;;;6.32;;
14272;SDS011;7220;49.450;11.052;2023-06-22T17:44:32;9.27;;;5.43;;
14272;SDS011;7220;49.450;11.052;2023-06-22T17:48:33;9.43;;;5.07;;
14272;SDS011;7220;49.450;11.052;2023-06-22T17:52:33;9.70;;;6.05;;
14272;SDS011;7220;49.450;11.052;2023-06-22T17:56:33;10.40;;;5.73;;
14272;SDS011;7220;49.450;11.052;2023-06-22T18:00:35;10.93;;;5.63;;
14272;SDS011;7220;49.450;11.052;2023-06-22T18:04:36;14.00;;;6.15;;
14272;SDS011;7220;49.450;11.052;2023-06-22T18:08:37;11.98;;;6.13;;
14272;SDS011;7220;49.450;11.052;2023-06-22T18:12:38;8.93;;;5.72;;
14272;SDS011;7220;49.450;11.052;2023-06-22T18:16:38;9.35;;;5.55;;
14272;SDS011;7220;49.450;11.052;2023-06-22T18:20:40;11.35;;;6.15;;
14272;SDS011;7220;49.450;11.052;2023-06-22T18:24:42;10.43;;;6.22;;
14272;SDS011;7220;49.450;11.052;2023-06-22T18:28:44;12.63;;;5.90;;
14272;SDS011;7220;49.450;11.052;2023-06-22T18:32:45;11.18;;;6.22;;
14272;SDS011;7220;49.450;11.052;2023-06-22T18:36:46;9.38;;;4.95;;
14272;SDS011;7220;49.450;11.052;2023-06-22T18:40:51;11.30;;;5.88;;
14272;SDS011;7220;49.450;11.052;2023-06-22T18:44:52;9.52;;;5.57;;
14272;SDS011;7220;49.450;11.052;2023-06-22T18:48:53;10.90;;;5.55;;
14272;SDS011;7220;49.450;11.052;2023-06-22T18:53:02;13.88;;;5.70;;
14272;SDS011;7220;49.450;11.052;2023-06-22T19:01:18;12.55;;;5.55;;
14272;SDS011;7220;49.450;11.052;2023-06-22T19:05:41;12.80;;;5.55;;
14272;SDS011;7220;49.450;11.052;2023-06-22T19:09:47;9.75;;;4.90;;
14272;SDS011;7220;49.450;11.052;2023-06-22T19:14:22;8.60;;;5.38;;
14272;SDS011;7220;49.450;11.052;2023-06-22T19:18:23;15.30;;;6.13;;
14272;SDS011;7220;49.450;11.052;2023-06-22T19:22:45;11.70;;;5.72;;
14272;SDS011;7220;49.450;11.052;2023-06-22T19:27:03;11.07;;;5.32;;
14272;SDS011;7220;49.450;11.052;2023-06-22T19:31:04;10.77;;;4.95;;
14272;SDS011;7220;49.450;11.052;2023-06-22T19:35:05;13.07;;;6.43;;
14272;SDS011;7220;49.450;11.052;2023-06-22T19:39:07;11.43;;;5.28;;
14272;SDS011;7220;49.450;11.052;2023-06-22T19:43:08;12.45;;;6.05;;
14272;SDS011;7220;49.450;11.052;2023-06-22T19:47:08;13.90;;;5.68;;
14272;SDS011;7220;49.450;11.052;2023-06-22T19:51:08;11.05;;;5.80;;
14272;SDS011;7220;49.450;11.052;2023-06-22T19:55:10;17.02;;;5.72;;
14272;SDS011;7220;49.450;11.052;2023-06-22T19:59:14;11.60;;;5.55;;
14272;SDS011;7220;49.450;11.052;2023-06-22T20:03:26;11.30;;;5.30;;
14272;SDS011;7220;49.450;11.052;2023-06-22T20:07:33;10.55;;;5.95;;
14272;SDS011;7220;49.450;11.052;2023-06-22T20:11:40;8.75;;;5.35;;
14272;SDS011;7220;49.450;11.052;2023-06-22T20:15:44;9.87;;;5.63;;
14272;SDS011;7220;49.450;11.052;2023-06-22T20:19:52;10.48;;;5.50;;
14272;SDS011;7220;49.450;11.052;2023-06-22T20:23:53;9.65;;;5.50;;
14272;SDS011;7220;49.450;11.052;2023-06-22T20:27:54;13.03;;;6.73;;
14272;SDS011;7220;49.450;11.052;2023-06-22T20:32:04;13.20;;;7.22;;
14272;SDS011;7220;49.450;11.052;2023-06-22T20:36:05;15.55;;;6.18;;
14272;SDS011;7220;49.450;11.052;2023-06-22T20:40:10;18.48;;;7.80;;
14272;SDS011;7220;49.450;11.052;2023-06-22T20:44:11;13.45;;;6.57;;
14272;SDS011;7220;49.450;11.052;2023-06-22T20:48:11;16.42;;;6.72;;
14272;SDS011;7220;49.450;11.052;2023-06-22T20:52:11;15.88;;;7.38;;
14272;SDS011;7220;49.450;11.052;2023-06-22T20:56:12;14.32;;;6.85;;
14272;SDS011;7220;49.450;11.052;2023-06-22T21:00:12;15.00;;;7.40;;
14272;SDS011;7220;49.450;11.052;2023-06-22T21:04:13;13.95;;;7.45;;
14272;SDS011;7220;49.450;11.052;2023-06-22T21:08:13;13.73;;;7.23;;
14272;SDS011;7220;49.450;11.052;2023-06-22T21:12:14;16.10;;;7.50;;
14272;SDS011;7220;49.450;11.052;2023-06-22T21:16:14;10.40;;;6.38;;
14272;SDS011;7220;49.450;11.052;2023-06-22T21:20:15;13.57;;;7.40;;
14272;SDS011;7220;49.450;11.052;2023-06-22T21:24:15;18.38;;;7.05;;
14272;SDS011;7220;49.450;11.052;2023-06-22T21:28:15;10.77;;;6.97;;
14272;SDS011;7220;49.450;11.052;2023-06-22T21:32:19;12.80;;;8.02;;
14272;SDS011;7220;49.450;11.052;2023-06-22T21:36:19;13.53;;;7.77;;
14272;SDS011;7220;49.450;11.052;2023-06-22T21:40:19;14.23;;;6.68;;
14272;SDS011;7220;49.450;11.052;2023-06-22T21:44:20;13.65;;;6.75;;
14272;SDS011;7220;49.450;11.052;2023-06-22T21:48:20;14.73;;;6.97;;
14272;SDS011;7220;49.450;11.052;2023-06-22T21:52:20;11.47;;;6.50;;
14272;SDS011;7220;49.450;11.052;2023-06-22T21:56:21;12.95;;;6.65;;
14272;SDS011;7220;49.450;11.052;2023-06-22T22:00:21;13.88;;;7.03;;
14272;SDS011;7220;49.450;11.052;2023-06-22T22:04:22;11.93;;;7.18;;
14272;SDS011;7220;49.450;11.052;2023-06-22T22:08:22;14.18;;;6.57;;
14272;SDS011;7220;49.450;11.052;2023-06-22T22:12:25;11.48;;;6.60;;
14272;SDS011;7220;49.450;11.052;2023-06-22T22:16:26;11.43;;;6.32;;
14272;SDS011;7220;49.450;11.052;2023-06-22T22:20:26;12.80;;;6.63;;
14272;SDS011;7220;49.450;11.052;2023-06-22T22:24:26;13.47;;;7.13;;
14272;SDS011;7220;49.450;11.052;2023-06-22T22:28:27;9.77;;;7.13;;
14272;SDS011;7220;49.450;11.052;2023-06-22T22:32:27;17.73;;;7.30;;
14272;SDS011;7220;49.450;11.052;2023-06-22T22:36:27;11.07;;;6.37;;
14272;SDS011;7220;49.450;11.052;2023-06-22T22:40:27;12.23;;;6.13;;
14272;SDS011;7220;49.450;11.052;2023-06-22T22:44:28;12.43;;;6.10;;
14272;SDS011;7220;49.450;11.052;2023-06-22T22:48:28;10.50;;;6.85;;
14272;SDS011;7220;49.450;11.052;2023-06-22T22:52:31;9.63;;;6.70;;
14272;SDS011;7220;49.450;11.052;2023-06-22T22:56:31;13.20;;;7.50;;
14272;SDS011;7220;49.450;11.052;2023-06-22T23:00:31;14.37;;;7.00;;
14272;SDS011;7220;49.450;11.052;2023-06-22T23:04:32;12.82;;;6.82;;
14272;SDS011;7220;49.450;11.052;2023-06-22T23:08:32;15.53;;;7.17;;
14272;SDS011;7220;49.450;11.052;2023-06-22T23:12:33;12.25;;;6.57;;
14272;SDS011;7220;49.450;11.052;2023-06-22T23:16:33;10.50;;;6.82;;
14272;SDS011;7220;49.450;11.052;2023-06-22T23:20:34;11.38;;;6.65;;
14272;SDS011;7220;49.450;11.052;2023-06-22T23:24:35;12.82;;;6.43;;
14272;SDS011;7220;49.450;11.052;2023-06-22T23:28:36;12.40;;;6.30;;
14272;SDS011;7220;49.450;11.052;2023-06-22T23:32:36;12.80;;;6.20;;
14272;SDS011;7220;49.450;11.052;2023-06-22T23:36:36;10.87;;;6.17;;
14272;SDS011;7220;49.450;11.052;2023-06-22T23:40:37;9.73;;;6.60;;
14272;SDS011;7220;49.450;11.052;2023-06-22T23:44:39;7.65;;;5.50;;
14272;SDS011;7220;49.450;11.052;2023-06-22T23:48:39;10.50;;;6.53;;
14272;SDS011;7220;49.450;11.052;2023-06-22T23:52:42;9.77;;;5.70;;
14272;SDS011;7220;49.450;11.052;2023-06-22T23:56:51;13.00;;;6.07;;
